Rochert, Minnesota
Current Conditions -  °F | °C
As of 8:35 PM on Wednesday 22 Oct 2014 (Local Time) from KDTL Reporting Station
Moderate Rain Moderate Rain  
Wind Chill: 54°   Ceiling: 1800
Heat Index: 54°   Visibility: 7mi
Dew Point: 52°   Wind: 5mph
Humidity: 94%   Direction: 220°SW
Pressure: 29.93"   Gusts: NA
Location:  46.86°N, 95.69°W
Report Text: KDTL 230135Z AUTO 22004KT 7SM RA SCT012 BKN018 12/11 A2993 RMK AO2 P0006
Loading
Personal Weather Stations






























Interactive Weather Map
Tropical Storm Tracking
New forecast layout! Learn more

10-Day Weather Forecast

Advertisements
Track Severe Weather on mobile